Time;durP1;ratioP1;P1;durP2;ratioP2;P2;SDS_P1;SDS_P2;PMS_P1;PMS_P2;Temp;Humidity;BMP_temperature;BMP_pressure;BME280_temperature;BME280_humidity;BME280_pressure;Samples;Min_cycle;Max_cycle;Signal;HPM_P1;HPM_P2
2023/10/02 00:01:52;;;;;;;;;;;;;;;;;;5094768;28;19919;-57
2023/10/02 00:04:18;;;;;;;;;;;;;;;;;;5109512;28;19920;-57
2023/10/02 00:06:43;;;;;;;;;;;;;;;;;;5113297;28;19918;-58
2023/10/02 00:09:09;;;;;;;;;;;;;;;;;;5113219;28;19937;-54
2023/10/02 00:11:41;;;;;;;;;;;;;;;;;;5113282;28;19912;-57
2023/10/02 00:14:19;;;;;;;;;;;;;;;;;;5081875;28;19995;-57
2023/10/02 00:16:58;;;;;;;;;;;;;;;;;;5102515;28;19975;-58
2023/10/02 00:19:27;;;;;;;;;;;;;;;;;;5082593;28;19923;-54
2023/10/02 00:21:52;;;;;;;;;;;;;;;;;;5111281;28;19919;-54
2023/10/02 00:24:18;;;;;;;;;;;;;;;;;;5118056;28;19980;-53
2023/10/02 00:26:44;;;;;;;;;;;;;;;;;;5117207;28;19918;-57
2023/10/02 00:29:10;;;;;;;;;;;;;;;;;;5134293;28;19948;-55
2023/10/02 00:31:38;;;;;;;;;;;;;;;;;;5115116;28;19912;-55
2023/10/02 00:34:03;;;;;;;;;;;;;;;;;;5134005;28;19913;-56
2023/10/02 00:36:30;;;;;;;;;;;;;;;;;;5111232;28;19919;-57
2023/10/02 00:38:55;;;;;;;;;;;;;;;;;;5126410;28;19913;-57
2023/10/02 00:41:21;;;;;;;;;;;;;;;;;;5098385;28;19988;-57
2023/10/02 00:43:47;;;;;;;;;;;;;;;;;;5133351;28;19912;-56
2023/10/02 00:46:23;;;;;;;;;;;;;;;;;;5096651;28;19933;-57
2023/10/02 00:48:49;;;;;;;;;;;;;;;;;;5134133;28;19967;-57
2023/10/02 00:51:14;;;;;;;;;;;;;;;;;;5122926;28;19943;-58
2023/10/02 00:53:41;;;;;;;;;;;;;;;;;;5099494;28;19920;-57
2023/10/02 00:56:20;;;;;;;;;;;;;;;;;;5130792;28;19912;-57
2023/10/02 00:58:45;;;;;;;;;;;;;;;;;;5090496;28;19912;-59
2023/10/02 01:01:11;;;;;;;;;;;;;;;;;;5115807;28;19976;-58
2023/10/02 01:04:07;;;;;;;;;;;;;;;;;;5132912;28;19919;-58
2023/10/02 01:06:22;;;;;;;;;;;;;;;;;;5096413;28;19916;-58
2023/10/02 01:08:49;;;;;;;;;;;;;;;;;;5092752;28;19912;-58
2023/10/02 01:11:14;;;;;;;;;;;;;;;;;;5076555;28;19923;-57
2023/10/02 01:13:40;;;;;;;;;;;;;;;;;;5116653;28;19983;-57
2023/10/02 01:16:08;;;;;;;;;;;;;;;;;;5085451;28;19920;-56
2023/10/02 01:18:33;;;;;;;;;;;;;;;;;;5077346;28;19939;-57
2023/10/02 01:20:59;;;;;;;;;;;;;;;;;;5103445;28;19916;-56
2023/10/02 01:23:28;;;;;;;;;;;;;;;;;;5132727;28;19919;-58
2023/10/02 01:25:57;;;;;;;;;;;;;;;;;;5116332;28;19919;-56
2023/10/02 01:28:25;;;;;;;;;;;;;;;;;;5128465;28;19912;-55
2023/10/02 01:30:50;;;;;;;;;;;;;;;;;;5127392;28;19941;-57
2023/10/02 01:33:26;;;;;;;;;;;;;;;;;;5109567;28;19913;-57
2023/10/02 01:35:51;;;;;;;;;;;;;;;;;;5122268;28;19971;-57
2023/10/02 01:38:18;;;;;;;;;;;;;;;;;;5132134;28;19916;-57
2023/10/02 01:40:44;;;;;;;;;;;;;;;;;;5129316;28;19980;-54
2023/10/02 01:43:13;;;;;;;;;;;;;;;;;;5109985;28;19966;-55
2023/10/02 01:45:42;;;;;;;;;;;;;;;;;;5088658;28;19930;-55
2023/10/02 01:48:08;;;;;;;;;;;;;;;;;;5081919;28;19972;-57
2023/10/02 01:50:37;;;;;;;;;;;;;;;;;;5113486;28;19912;-53
2023/10/02 01:53:03;;;;;;;;;;;;;;;;;;5102560;28;19935;-55
2023/10/02 01:55:29;;;;;;;;;;;;;;;;;;5132257;28;19951;-56
2023/10/02 01:57:55;;;;;;;;;;;;;;;;;;5090831;28;19947;-57
2023/10/02 02:00:23;;;;;;;;;;;;;;;;;;5132192;28;19959;-57
2023/10/02 02:03:14;;;;;;;;;;;;;;;;;;5102166;28;19912;-59
2023/10/02 02:05:34;;;;;;;;;;;;;;;;;;5115610;28;19912;-57
2023/10/02 02:08:21;;;;;;;;;;;;;;;;;;5125027;28;19935;-58
2023/10/02 02:10:46;;;;;;;;;;;;;;;;;;5112037;28;19919;-56
2023/10/02 02:13:11;;;;;;;;;;;;;;;;;;5115797;28;19987;-58
2023/10/02 02:15:38;;;;;;;;;;;;;;;;;;5115546;28;19919;-54
2023/10/02 02:18:04;;;;;;;;;;;;;;;;;;5131821;28;19919;-55
2023/10/02 02:20:57;;;;;;;;;;;;;;;;;;5115513;28;19924;-57
2023/10/02 02:23:22;;;;;;;;;;;;;;;;;;5108679;28;19912;-57
2023/10/02 02:25:48;;;;;;;;;;;;;;;;;;5108979;28;19920;-57
2023/10/02 02:28:13;;;;;;;;;;;;;;;;;;5090941;28;19912;-57
2023/10/02 02:30:40;;;;;;;;;;;;;;;;;;5114803;28;19913;-54
2023/10/02 02:33:07;;;;;;;;;;;;;;;;;;5110276;28;19912;-56
2023/10/02 02:35:35;;;;;;;;;;;;;;;;;;5095982;28;19915;-57
2023/10/02 02:38:02;;;;;;;;;;;;;;;;;;5114979;28;19931;-57
2023/10/02 02:40:29;;;;;;;;;;;;;;;;;;5101536;28;19937;-57
2023/10/02 02:42:56;;;;;;;;;;;;;;;;;;5129370;28;19919;-56
2023/10/02 02:45:28;;;;;;;;;;;;;;;;;;5089604;28;19912;-56
2023/10/02 02:47:54;;;;;;;;;;;;;;;;;;5085874;28;19938;-55
2023/10/02 02:50:27;;;;;;;;;;;;;;;;;;5114715;28;19916;-57
2023/10/02 02:53:16;;;;;;;;;;;;;;;;;;5115804;28;19913;-53
2023/10/02 02:55:38;;;;;;;;;;;;;;;;;;5122964;28;19918;-53
2023/10/02 02:58:07;;;;;;;;;;;;;;;;;;5093613;28;19935;-58
2023/10/02 03:00:35;;;;;;;;;;;;;;;;;;5114186;28;19916;-54
2023/10/02 03:03:00;;;;;;;;;;;;;;;;;;5112978;28;19927;-58
2023/10/02 03:05:38;;;;;;;;;;;;;;;;;;5106819;28;20409;-57
2023/10/02 03:08:03;;;;;;;;;;;;;;;;;;5091075;28;19912;-58
2023/10/02 03:10:36;;;;;;;;;;;;;;;;;;5107653;28;19967;-54
2023/10/02 03:13:02;;;;;;;;;;;;;;;;;;5102853;28;19983;-57
2023/10/02 03:15:46;;;;;;;;;;;;;;;;;;5114388;28;19912;-56
2023/10/02 03:18:30;;;;;;;;;;;;;;;;;;5109549;28;19916;-56
2023/10/02 03:20:56;;;;;;;;;;;;;;;;;;5090909;28;19924;-56
2023/10/02 03:23:23;;;;;;;;;;;;;;;;;;5113427;28;19942;-55
2023/10/02 03:25:51;;;;;;;;;;;;;;;;;;5095233;28;19984;-58
2023/10/02 03:28:27;;;;;;;;;;;;;;;;;;5108509;28;19913;-57
2023/10/02 03:30:52;;;;;;;;;;;;;;;;;;5083404;28;19912;-58
2023/10/02 03:33:18;;;;;;;;;;;;;;;;;;5094736;28;19918;-57
2023/10/02 03:35:56;;;;;;;;;;;;;;;;;;5094908;28;19944;-56
2023/10/02 03:38:22;;;;;;;;;;;;;;;;;;5096844;28;19918;-56
2023/10/02 03:40:47;;;;;;;;;;;;;;;;;;5104431;28;19916;-57
2023/10/02 03:43:34;;;;;;;;;;;;;;;;;;5105323;28;19920;-57
2023/10/02 03:45:59;;;;;;;;;;;;;;;;;;5115131;28;19919;-55
2023/10/02 03:48:28;;;;;;;;;;;;;;;;;;5101070;28;19912;-58
2023/10/02 03:50:56;;;;;;;;;;;;;;;;;;5096586;28;19912;-58
2023/10/02 03:53:28;;;;;;;;;;;;;;;;;;5113427;28;19927;-57
2023/10/02 03:55:54;;;;;;;;;;;;;;;;;;5117642;28;19923;-55
2023/10/02 03:58:35;;;;;;;;;;;;;;;;;;5115536;28;19948;-56
2023/10/02 04:01:01;;;;;;;;;;;;;;;;;;5111749;28;19988;-58
2023/10/02 04:03:26;;;;;;;;;;;;;;;;;;5098362;28;19938;-57
2023/10/02 04:05:51;;;;;;;;;;;;;;;;;;5098421;28;19916;-57
2023/10/02 04:10:51;;;;;;;;;;;;;;;;;;5098272;28;19916;-57
2023/10/02 04:13:17;;;;;;;;;;;;;;;;;;5108117;28;19954;-58
2023/10/02 04:15:44;;;;;;;;;;;;;;;;;;5101060;28;19917;-59
2023/10/02 04:18:09;;;;;;;;;;;;;;;;;;5083779;28;19912;-55
2023/10/02 04:20:35;;;;;;;;;;;;;;;;;;5101862;28;19916;-55
2023/10/02 04:23:18;;;;;;;;;;;;;;;;;;5114823;28;19916;-56
2023/10/02 04:25:44;;;;;;;;;;;;;;;;;;5111714;28;19928;-55
2023/10/02 04:28:09;;;;;;;;;;;;;;;;;;5097692;28;19912;-57
2023/10/02 04:30:37;;;;;;;;;;;;;;;;;;5098107;28;19917;-58
2023/10/02 04:33:08;;;;;;;;;;;;;;;;;;5113861;28;19934;-57
2023/10/02 04:35:45;;;;;;;;;;;;;;;;;;5084596;28;19944;-56
2023/10/02 04:38:14;;;;;;;;;;;;;;;;;;5107903;28;19943;-58
2023/10/02 04:40:51;;;;;;;;;;;;;;;;;;5097619;28;19954;-56
2023/10/02 04:43:19;;;;;;;;;;;;;;;;;;5101251;28;19927;-53
2023/10/02 04:45:45;;;;;;;;;;;;;;;;;;5097617;28;19916;-54
2023/10/02 04:48:11;;;;;;;;;;;;;;;;;;5114566;28;19919;-58
2023/10/02 04:50:36;;;;;;;;;;;;;;;;;;5110963;28;19976;-56
2023/10/02 04:55:42;;;;;;;;;;;;;;;;;;5117745;28;19919;-56
2023/10/02 04:58:14;;;;;;;;;;;;;;;;;;5107218;28;19912;-55
2023/10/02 05:01:00;;;;;;;;;;;;;;;;;;5113323;28;19938;-56
2023/10/02 05:03:25;;;;;;;;;;;;;;;;;;5089251;28;19912;-57
2023/10/02 05:05:53;;;;;;;;;;;;;;;;;;5111559;28;19962;-57
2023/10/02 05:08:20;;;;;;;;;;;;;;;;;;5132537;28;19919;-55
2023/10/02 05:11:05;;;;;;;;;;;;;;;;;;5115298;28;19927;-54
2023/10/02 05:16:15;;;;;;;;;;;;;;;;;;5093922;28;19912;-56
2023/10/02 05:18:51;;;;;;;;;;;;;;;;;;5114155;28;19919;-55
2023/10/02 05:21:17;;;;;;;;;;;;;;;;;;5105530;28;19916;-57
2023/10/02 05:23:43;;;;;;;;;;;;;;;;;;5127507;28;19983;-58
2023/10/02 05:26:29;;;;;;;;;;;;;;;;;;5116828;28;19916;-54
2023/10/02 05:28:55;;;;;;;;;;;;;;;;;;5116595;28;19912;-55
2023/10/02 05:31:21;;;;;;;;;;;;;;;;;;5108919;28;20176;-60
2023/10/02 05:33:48;;;;;;;;;;;;;;;;;;5116209;28;19912;-62
2023/10/02 05:36:19;;;;;;;;;;;;;;;;;;5116805;28;19912;-63
2023/10/02 05:39:05;;;;;;;;;;;;;;;;;;5116313;28;19997;-62
2023/10/02 05:41:41;;;;;;;;;;;;;;;;;;5115757;28;19927;-60
2023/10/02 05:44:13;;;;;;;;;;;;;;;;;;5107528;28;19912;-63
2023/10/02 05:46:55;;;;;;;;;;;;;;;;;;5088706;28;19920;-62
2023/10/02 05:49:23;;;;;;;;;;;;;;;;;;5098073;28;19919;-63
2023/10/02 05:51:48;;;;;;;;;;;;;;;;;;5103300;28;19916;-62
2023/10/02 05:54:13;;;;;;;;;;;;;;;;;;5089249;28;19919;-59
2023/10/02 05:56:39;;;;;;;;;;;;;;;;;;5084593;28;19913;-62
2023/10/02 05:59:04;;;;;;;;;;;;;;;;;;5109817;28;19912;-62
2023/10/02 06:01:34;;;;;;;;;;;;;;;;;;5092209;28;19921;-63
2023/10/02 06:04:04;;;;;;;;;;;;;;;;;;5100069;28;19938;-59
2023/10/02 06:06:35;;;;;;;;;;;;;;;;;;5099327;28;19980;-63
2023/10/02 06:09:03;;;;;;;;;;;;;;;;;;5102983;28;19911;-62
2023/10/02 06:11:33;;;;;;;;;;;;;;;;;;5104946;28;19971;-59
2023/10/02 06:14:09;;;;;;;;;;;;;;;;;;5111441;28;19912;-63
2023/10/02 06:16:34;;;;;;;;;;;;;;;;;;5111948;28;19919;-63
2023/10/02 06:19:06;;;;;;;;;;;;;;;;;;5108808;28;19920;-62
2023/10/02 06:21:32;;;;;;;;;;;;;;;;;;5105488;28;19916;-59
2023/10/02 06:23:58;;;;;;;;;;;;;;;;;;5109564;28;19920;-60
2023/10/02 06:26:29;;;;;;;;;;;;;;;;;;5084232;28;19979;-63
2023/10/02 06:29:13;;;;;;;;;;;;;;;;;;5110167;28;19954;-63
2023/10/02 06:31:41;;;;;;;;;;;;;;;;;;5085630;28;19913;-62
2023/10/02 06:34:08;;;;;;;;;;;;;;;;;;5107696;28;19912;-63
2023/10/02 06:36:45;;;;;;;;;;;;;;;;;;5104212;28;19912;-63
2023/10/02 06:39:10;;;;;;;;;;;;;;;;;;5112754;28;19923;-62
2023/10/02 06:41:36;;;;;;;;;;;;;;;;;;5091272;28;19920;-60
2023/10/02 06:44:14;;;;;;;;;;;;;;;;;;5113688;28;19934;-62
2023/10/02 06:46:52;;;;;;;;;;;;;;;;;;5094398;28;19916;-61
2023/10/02 06:49:17;;;;;;;;;;;;;;;;;;5093638;28;19994;-60
2023/10/02 06:51:49;;;;;;;;;;;;;;;;;;5116692;28;19984;-60
2023/10/02 06:54:14;;;;;;;;;;;;;;;;;;5101510;28;19984;-60
2023/10/02 06:56:43;;;;;;;;;;;;;;;;;;5113762;28;19916;-57
2023/10/02 06:59:09;;;;;;;;;;;;;;;;;;5100774;28;19912;-59
2023/10/02 07:01:35;;;;;;;;;;;;;;;;;;5103356;28;19909;-61
2023/10/02 07:04:09;;;;;;;;;;;;;;;;;;5085172;28;19913;-61
2023/10/02 07:06:38;;;;;;;;;;;;;;;;;;5112912;28;19955;-61
2023/10/02 07:09:13;;;;;;;;;;;;;;;;;;5096929;28;19919;-62
2023/10/02 07:11:39;;;;;;;;;;;;;;;;;;5103922;28;19916;-62
2023/10/02 07:14:06;;;;;;;;;;;;;;;;;;5112480;28;19954;-62
2023/10/02 07:16:32;;;;;;;;;;;;;;;;;;5105525;28;19916;-59
2023/10/02 07:18:58;;;;;;;;;;;;;;;;;;5109981;28;19926;-62
2023/10/02 07:21:25;;;;;;;;;;;;;;;;;;5094845;28;19959;-62
2023/10/02 07:23:51;;;;;;;;;;;;;;;;;;5095132;28;19938;-62
2023/10/02 07:26:19;;;;;;;;;;;;;;;;;;5094921;28;19913;-60
2023/10/02 07:28:51;;;;;;;;;;;;;;;;;;5097559;28;19934;-61
2023/10/02 07:31:17;;;;;;;;;;;;;;;;;;5107096;28;19919;-59
2023/10/02 07:33:44;;;;;;;;;;;;;;;;;;5099494;28;19912;-62
2023/10/02 07:36:14;;;;;;;;;;;;;;;;;;5099312;28;19912;-63
2023/10/02 07:38:42;;;;;;;;;;;;;;;;;;5102046;28;19971;-63
2023/10/02 07:41:07;;;;;;;;;;;;;;;;;;5079026;28;19920;-61
2023/10/02 07:43:32;;;;;;;;;;;;;;;;;;5100779;28;19923;-61
2023/10/02 07:46:01;;;;;;;;;;;;;;;;;;5098871;28;19913;-60
2023/10/02 07:48:26;;;;;;;;;;;;;;;;;;5112007;28;19965;-61
2023/10/02 07:50:51;;;;;;;;;;;;;;;;;;5104065;28;19912;-60
2023/10/02 07:53:17;;;;;;;;;;;;;;;;;;5104086;28;19934;-59
2023/10/02 07:55:43;;;;;;;;;;;;;;;;;;5098678;28;19912;-62
2023/10/02 07:58:08;;;;;;;;;;;;;;;;;;5110106;28;19976;-60
2023/10/02 08:00:33;;;;;;;;;;;;;;;;;;5108949;28;19983;-60
2023/10/02 08:03:02;;;;;;;;;;;;;;;;;;5110270;28;19971;-56
2023/10/02 08:05:28;;;;;;;;;;;;;;;;;;5093462;28;19916;-58
2023/10/02 08:08:08;;;;;;;;;;;;;;;;;;5103534;28;19903;-62
2023/10/02 08:10:48;;;;;;;;;;;;;;;;;;5096685;28;19920;-58
2023/10/02 08:13:14;;;;;;;;;;;;;;;;;;5097751;28;19916;-60
2023/10/02 08:15:40;;;;;;;;;;;;;;;;;;5106537;28;19947;-62
2023/10/02 08:18:14;;;;;;;;;;;;;;;;;;5093225;28;19947;-60
2023/10/02 08:20:40;;;;;;;;;;;;;;;;;;5113842;28;19916;-62
2023/10/02 08:23:06;;;;;;;;;;;;;;;;;;5109027;28;19919;-62
2023/10/02 08:25:33;;;;;;;;;;;;;;;;;;5118270;28;19912;-61
2023/10/02 08:27:59;;;;;;;;;;;;;;;;;;5086769;28;19916;-61
2023/10/02 08:30:29;;;;;;;;;;;;;;;;;;5080104;28;19912;-60
2023/10/02 08:32:55;;;;;;;;;;;;;;;;;;5087232;28;19935;-59
2023/10/02 08:35:21;;;;;;;;;;;;;;;;;;5099540;28;19921;-61
2023/10/02 08:37:52;;;;;;;;;;;;;;;;;;5080257;28;19920;-62
2023/10/02 08:40:17;;;;;;;;;;;;;;;;;;5098319;28;19916;-61
2023/10/02 08:42:46;;;;;;;;;;;;;;;;;;5082578;28;20375;-60
2023/10/02 08:45:18;;;;;;;;;;;;;;;;;;5086610;28;19912;-62
2023/10/02 08:47:46;;;;;;;;;;;;;;;;;;5097434;28;19944;-62
2023/10/02 08:50:15;;;;;;;;;;;;;;;;;;5101921;28;19935;-61
2023/10/02 08:52:47;;;;;;;;;;;;;;;;;;5082407;28;19912;-61
2023/10/02 08:55:26;;;;;;;;;;;;;;;;;;5102555;28;19998;-62
2023/10/02 08:57:51;;;;;;;;;;;;;;;;;;5079781;28;20335;-61
2023/10/02 09:00:16;;;;;;;;;;;;;;;;;;5096622;28;19955;-62
2023/10/02 09:02:54;;;;;;;;;;;;;;;;;;5099609;28;19942;-63
2023/10/02 09:05:19;;;;;;;;;;;;;;;;;;5099461;28;19919;-63
2023/10/02 09:07:45;;;;;;;;;;;;;;;;;;5079838;28;19952;-62
2023/10/02 09:10:26;;;;;;;;;;;;;;;;;;5103262;28;19920;-62
2023/10/02 09:12:52;;;;;;;;;;;;;;;;;;5098458;28;19913;-60
2023/10/02 09:15:24;;;;;;;;;;;;;;;;;;5087831;28;19919;-60
2023/10/02 09:17:50;;;;;;;;;;;;;;;;;;5102837;28;19912;-62
2023/10/02 09:20:16;;;;;;;;;;;;;;;;;;5085942;28;19917;-61
2023/10/02 09:22:43;;;;;;;;;;;;;;;;;;5091028;28;19920;-63
2023/10/02 09:25:15;;;;;;;;;;;;;;;;;;5077368;28;19913;-64
2023/10/02 09:27:52;;;;;;;;;;;;;;;;;;5086264;28;19915;-63
2023/10/02 09:30:21;;;;;;;;;;;;;;;;;;5105659;28;19933;-61
2023/10/02 09:32:47;;;;;;;;;;;;;;;;;;5099645;28;19934;-62
2023/10/02 09:35:21;;;;;;;;;;;;;;;;;;5102468;28;19912;-62
2023/10/02 09:37:49;;;;;;;;;;;;;;;;;;5099930;28;19912;-60
2023/10/02 09:40:15;;;;;;;;;;;;;;;;;;5086626;28;19918;-62
2023/10/02 09:42:45;;;;;;;;;;;;;;;;;;5096558;28;19916;-62
2023/10/02 09:45:11;;;;;;;;;;;;;;;;;;5104484;28;19913;-62
2023/10/02 09:47:36;;;;;;;;;;;;;;;;;;5101468;28;19934;-63
2023/10/02 09:50:12;;;;;;;;;;;;;;;;;;5096707;28;19912;-64
2023/10/02 09:52:39;;;;;;;;;;;;;;;;;;5098595;28;19940;-63
2023/10/02 09:55:05;;;;;;;;;;;;;;;;;;5101206;28;19923;-63
2023/10/02 09:57:31;;;;;;;;;;;;;;;;;;5108102;28;19920;-63
2023/10/02 09:59:57;;;;;;;;;;;;;;;;;;5104123;28;19916;-64
2023/10/02 10:04:47;;;;;;;;;;;;;;;;;;5111584;28;19920;-59
2023/10/02 10:07:35;;;;;;;;;;;;;;;;;;5097663;28;19940;-63
2023/10/02 10:09:58;;;;;;;;;;;;;;;;;;5094162;28;19944;-64
2023/10/02 10:12:50;;;;;;;;;;;;;;;;;;5100193;28;19920;-61
2023/10/02 10:15:23;;;;;;;;;;;;;;;;;;5084702;28;19940;-62
2023/10/02 10:17:52;;;;;;;;;;;;;;;;;;5085530;28;19939;-63
2023/10/02 10:20:22;;;;;;;;;;;;;;;;;;5108159;28;19916;-62
2023/10/02 10:22:56;;;;;;;;;;;;;;;;;;5095863;28;19913;-63
2023/10/02 10:27:54;;;;;;;;;;;;;;;;;;5104536;28;19912;-64
2023/10/02 10:30:22;;;;;;;;;;;;;;;;;;5109619;28;19985;-64
2023/10/02 10:32:48;;;;;;;;;;;;;;;;;;5109891;28;19919;-65
2023/10/02 10:35:14;;;;;;;;;;;;;;;;;;5104523;28;19917;-64
2023/10/02 10:37:41;;;;;;;;;;;;;;;;;;5095246;28;19919;-65
2023/10/02 10:40:43;;;;;;;;;;;;;;;;;;5109871;28;19916;-65
2023/10/02 10:42:52;;;;;;;;;;;;;;;;;;5106820;28;19920;-65
2023/10/02 10:45:19;;;;;;;;;;;;;;;;;;5082324;28;19916;-59
2023/10/02 10:47:46;;;;;;;;;;;;;;;;;;5103705;28;19912;-59
2023/10/02 10:50:29;;;;;;;;;;;;;;;;;;5110366;28;19915;-60
2023/10/02 10:52:54;;;;;;;;;;;;;;;;;;5094648;28;19920;-59
2023/10/02 10:55:21;;;;;;;;;;;;;;;;;;5080946;28;19912;-59
2023/10/02 10:57:53;;;;;;;;;;;;;;;;;;5096795;28;19912;-59
2023/10/02 11:00:24;;;;;;;;;;;;;;;;;;5093533;28;19916;-58
2023/10/02 11:02:52;;;;;;;;;;;;;;;;;;5104850;28;19939;-57
2023/10/02 11:05:17;;;;;;;;;;;;;;;;;;5093858;28;19919;-59
2023/10/02 11:07:46;;;;;;;;;;;;;;;;;;5105931;28;19908;-60
2023/10/02 11:10:15;;;;;;;;;;;;;;;;;;5086335;28;19938;-59
2023/10/02 11:12:54;;;;;;;;;;;;;;;;;;5098229;28;19913;-59
2023/10/02 11:15:44;;;;;;;;;;;;;;;;;;5085495;28;19920;-58
2023/10/02 11:18:18;;;;;;;;;;;;;;;;;;5088685;28;19919;-59
2023/10/02 11:20:44;;;;;;;;;;;;;;;;;;5099893;28;19916;-58
2023/10/02 11:23:09;;;;;;;;;;;;;;;;;;5084793;28;19945;-59
2023/10/02 11:25:39;;;;;;;;;;;;;;;;;;5100206;28;19942;-58
2023/10/02 11:28:04;;;;;;;;;;;;;;;;;;5090293;28;19920;-59
2023/10/02 11:30:33;;;;;;;;;;;;;;;;;;5084896;28;19952;-58
2023/10/02 11:33:07;;;;;;;;;;;;;;;;;;5088255;28;19936;-59
2023/10/02 11:35:39;;;;;;;;;;;;;;;;;;5084134;28;19952;-59
2023/10/02 11:38:07;;;;;;;;;;;;;;;;;;5088803;28;19924;-59
2023/10/02 11:40:32;;;;;;;;;;;;;;;;;;5097376;28;19951;-58
2023/10/02 11:42:59;;;;;;;;;;;;;;;;;;5106040;28;19913;-59
2023/10/02 11:45:24;;;;;;;;;;;;;;;;;;5098172;28;19928;-59
2023/10/02 11:47:50;;;;;;;;;;;;;;;;;;5085087;28;19912;-59
2023/10/02 11:50:16;;;;;;;;;;;;;;;;;;5102538;28;19952;-59
2023/10/02 11:52:41;;;;;;;;;;;;;;;;;;5094843;28;19975;-60
2023/10/02 11:55:06;;;;;;;;;;;;;;;;;;5108563;28;20410;-59
2023/10/02 11:57:33;;;;;;;;;;;;;;;;;;5103272;28;19980;-59
2023/10/02 12:00:08;;;;;;;;;;;;;;;;;;5110703;28;19934;-59
2023/10/02 12:02:37;;;;;;;;;;;;;;;;;;5107419;28;19912;-58
2023/10/02 12:05:02;;;;;;;;;;;;;;;;;;5111057;28;19979;-59
2023/10/02 12:07:27;;;;;;;;;;;;;;;;;;5097143;28;19912;-59
2023/10/02 12:09:54;;;;;;;;;;;;;;;;;;5111332;28;19934;-59
2023/10/02 12:12:19;;;;;;;;;;;;;;;;;;5096646;28;19916;-59
2023/10/02 12:14:45;;;;;;;;;;;;;;;;;;5103245;28;19912;-59
2023/10/02 12:17:14;;;;;;;;;;;;;;;;;;5107174;28;19923;-59
2023/10/02 12:19:40;;;;;;;;;;;;;;;;;;5105456;28;19923;-59
2023/10/02 12:22:06;;;;;;;;;;;;;;;;;;5110645;28;19912;-59
2023/10/02 12:24:31;;;;;;;;;;;;;;;;;;5115464;28;19983;-58
2023/10/02 12:26:56;;;;;;;;;;;;;;;;;;5101662;28;19935;-59
2023/10/02 12:29:22;;;;;;;;;;;;;;;;;;5097559;28;19982;-59
2023/10/02 12:31:47;;;;;;;;;;;;;;;;;;5105154;28;19912;-58
2023/10/02 12:34:13;;;;;;;;;;;;;;;;;;5097601;28;19932;-59
2023/10/02 12:36:39;;;;;;;;;;;;;;;;;;5097619;28;19980;-58
2023/10/02 12:39:09;;;;;;;;;;;;;;;;;;5097100;28;19928;-59
2023/10/02 12:41:35;;;;;;;;;;;;;;;;;;5112569;28;19916;-59
2023/10/02 12:44:02;;;;;;;;;;;;;;;;;;5106599;28;19921;-59
2023/10/02 12:46:27;;;;;;;;;;;;;;;;;;5099118;28;19947;-59
2023/10/02 12:48:55;;;;;;;;;;;;;;;;;;5096928;28;19912;-59
2023/10/02 12:51:20;;;;;;;;;;;;;;;;;;5102183;28;19952;-60
2023/10/02 12:53:45;;;;;;;;;;;;;;;;;;5097408;28;19935;-59
2023/10/02 12:56:11;;;;;;;;;;;;;;;;;;5100242;28;19991;-60
2023/10/02 12:58:36;;;;;;;;;;;;;;;;;;5106253;28;19943;-59
2023/10/02 13:01:02;;;;;;;;;;;;;;;;;;5101569;28;19920;-59
2023/10/02 13:03:28;;;;;;;;;;;;;;;;;;5109541;28;19944;-60
2023/10/02 13:05:53;;;;;;;;;;;;;;;;;;5110716;28;20484;-59
2023/10/02 13:08:20;;;;;;;;;;;;;;;;;;5114833;28;19918;-59
2023/10/02 13:10:45;;;;;;;;;;;;;;;;;;5112240;28;19955;-59
2023/10/02 13:13:11;;;;;;;;;;;;;;;;;;5112644;28;19951;-60
2023/10/02 13:15:37;;;;;;;;;;;;;;;;;;5110418;28;19912;-59
2023/10/02 13:18:02;;;;;;;;;;;;;;;;;;5114908;28;19939;-58
2023/10/02 13:20:28;;;;;;;;;;;;;;;;;;5100889;28;19927;-59
2023/10/02 13:22:54;;;;;;;;;;;;;;;;;;5100789;28;19920;-59
2023/10/02 13:25:21;;;;;;;;;;;;;;;;;;5111594;28;19913;-60
2023/10/02 13:27:47;;;;;;;;;;;;;;;;;;5107345;28;19909;-59
2023/10/02 13:30:12;;;;;;;;;;;;;;;;;;5111450;28;19923;-59
2023/10/02 13:32:40;;;;;;;;;;;;;;;;;;5116355;28;19912;-60
2023/10/02 13:35:05;;;;;;;;;;;;;;;;;;5115820;28;19912;-59
2023/10/02 13:37:34;;;;;;;;;;;;;;;;;;5111089;28;19952;-59
2023/10/02 13:39:59;;;;;;;;;;;;;;;;;;5111616;28;19916;-60
2023/10/02 13:42:25;;;;;;;;;;;;;;;;;;5107142;28;19912;-59
2023/10/02 13:44:50;;;;;;;;;;;;;;;;;;5101286;28;19960;-60
2023/10/02 13:47:16;;;;;;;;;;;;;;;;;;5103674;28;19912;-59
2023/10/02 13:49:43;;;;;;;;;;;;;;;;;;5111277;28;19916;-60
2023/10/02 13:52:09;;;;;;;;;;;;;;;;;;5115693;28;19939;-59
2023/10/02 13:54:34;;;;;;;;;;;;;;;;;;5108622;28;19920;-59
2023/10/02 13:57:02;;;;;;;;;;;;;;;;;;5115460;28;19908;-60
2023/10/02 13:59:27;;;;;;;;;;;;;;;;;;5109740;28;20007;-59
2023/10/02 14:01:53;;;;;;;;;;;;;;;;;;5105536;28;19912;-59
2023/10/02 14:04:19;;;;;;;;;;;;;;;;;;5111867;28;19912;-59
2023/10/02 14:06:46;;;;;;;;;;;;;;;;;;5131592;28;19912;-59
2023/10/02 14:09:13;;;;;;;;;;;;;;;;;;5102308;28;19979;-59
2023/10/02 14:11:39;;;;;;;;;;;;;;;;;;5115833;28;19912;-59
2023/10/02 14:14:06;;;;;;;;;;;;;;;;;;5111021;28;19912;-59
2023/10/02 14:16:33;;;;;;;;;;;;;;;;;;5102654;28;19916;-59
2023/10/02 14:19:00;;;;;;;;;;;;;;;;;;5095074;28;19912;-59
2023/10/02 14:21:26;;;;;;;;;;;;;;;;;;5094157;28;19931;-59
2023/10/02 14:23:54;;;;;;;;;;;;;;;;;;5095849;28;19984;-61
2023/10/02 14:26:20;;;;;;;;;;;;;;;;;;5101959;28;19984;-59
2023/10/02 14:28:46;;;;;;;;;;;;;;;;;;5099081;28;19934;-59
2023/10/02 14:31:11;;;;;;;;;;;;;;;;;;5105184;28;19927;-59
2023/10/02 14:33:40;;;;;;;;;;;;;;;;;;5100492;28;19947;-59
2023/10/02 14:36:07;;;;;;;;;;;;;;;;;;5107031;28;19913;-59
2023/10/02 14:38:32;;;;;;;;;;;;;;;;;;5105995;28;20371;-59
2023/10/02 14:40:57;;;;;;;;;;;;;;;;;;5092030;28;19916;-59
2023/10/02 14:43:23;;;;;;;;;;;;;;;;;;5092727;28;19912;-59
2023/10/02 14:45:49;;;;;;;;;;;;;;;;;;5091068;28;19939;-60
2023/10/02 14:48:19;;;;;;;;;;;;;;;;;;5080849;28;19913;-59
2023/10/02 14:50:44;;;;;;;;;;;;;;;;;;5085596;28;19944;-59
2023/10/02 14:53:11;;;;;;;;;;;;;;;;;;5094949;28;19912;-59
2023/10/02 14:55:36;;;;;;;;;;;;;;;;;;5094977;28;19913;-60
2023/10/02 14:58:02;;;;;;;;;;;;;;;;;;5090190;28;19979;-59
2023/10/02 15:00:28;;;;;;;;;;;;;;;;;;5091849;28;19923;-58
2023/10/02 15:02:54;;;;;;;;;;;;;;;;;;5105434;28;19920;-59
2023/10/02 15:05:19;;;;;;;;;;;;;;;;;;5111749;28;19915;-59
2023/10/02 15:07:45;;;;;;;;;;;;;;;;;;5106649;28;19997;-59
2023/10/02 15:10:11;;;;;;;;;;;;;;;;;;5122128;28;19983;-59
2023/10/02 15:12:37;;;;;;;;;;;;;;;;;;5108081;28;19924;-59
2023/10/02 15:15:05;;;;;;;;;;;;;;;;;;5093423;28;19912;-59
2023/10/02 15:17:31;;;;;;;;;;;;;;;;;;5086776;28;19927;-59
2023/10/02 15:19:58;;;;;;;;;;;;;;;;;;5103154;28;19916;-60
2023/10/02 15:22:25;;;;;;;;;;;;;;;;;;5096377;28;19913;-59
2023/10/02 15:24:50;;;;;;;;;;;;;;;;;;5090176;28;19934;-59
2023/10/02 15:27:17;;;;;;;;;;;;;;;;;;5087633;28;19961;-59
2023/10/02 15:29:42;;;;;;;;;;;;;;;;;;5093667;28;19916;-59
2023/10/02 15:32:12;;;;;;;;;;;;;;;;;;5101408;28;19916;-60
2023/10/02 15:34:41;;;;;;;;;;;;;;;;;;5104565;28;19909;-59
2023/10/02 15:37:07;;;;;;;;;;;;;;;;;;5095798;28;19920;-59
2023/10/02 15:39:32;;;;;;;;;;;;;;;;;;5093800;28;19912;-59
2023/10/02 15:41:58;;;;;;;;;;;;;;;;;;5092634;28;20144;-59
2023/10/02 15:44:24;;;;;;;;;;;;;;;;;;5093953;28;19934;-60
2023/10/02 15:46:50;;;;;;;;;;;;;;;;;;5102925;28;19920;-60
2023/10/02 15:49:15;;;;;;;;;;;;;;;;;;5105943;28;20003;-59
2023/10/02 15:51:41;;;;;;;;;;;;;;;;;;5116002;28;19916;-60
2023/10/02 15:54:07;;;;;;;;;;;;;;;;;;5106339;28;19958;-59
2023/10/02 15:56:32;;;;;;;;;;;;;;;;;;5101404;28;19912;-60
2023/10/02 15:58:59;;;;;;;;;;;;;;;;;;5104940;28;19998;-59
2023/10/02 16:01:25;;;;;;;;;;;;;;;;;;5100535;28;19916;-59
2023/10/02 16:03:50;;;;;;;;;;;;;;;;;;5107378;28;19919;-60
2023/10/02 16:06:18;;;;;;;;;;;;;;;;;;5093273;28;19904;-59
2023/10/02 16:08:43;;;;;;;;;;;;;;;;;;5088546;28;19928;-60
2023/10/02 16:11:09;;;;;;;;;;;;;;;;;;5088426;28;19912;-59
2023/10/02 16:13:34;;;;;;;;;;;;;;;;;;5094146;28;19912;-60
2023/10/02 16:16:00;;;;;;;;;;;;;;;;;;5100215;28;19966;-61
2023/10/02 16:18:26;;;;;;;;;;;;;;;;;;5101366;28;19912;-59
2023/10/02 16:20:51;;;;;;;;;;;;;;;;;;5099702;28;19932;-59
2023/10/02 16:23:17;;;;;;;;;;;;;;;;;;5100512;28;19980;-60
2023/10/02 16:25:43;;;;;;;;;;;;;;;;;;5100738;28;19939;-58
2023/10/02 16:28:11;;;;;;;;;;;;;;;;;;5097455;28;20006;-59
2023/10/02 16:30:36;;;;;;;;;;;;;;;;;;5108414;28;19968;-59
2023/10/02 16:33:02;;;;;;;;;;;;;;;;;;5099193;28;19931;-59
2023/10/02 16:35:30;;;;;;;;;;;;;;;;;;5087209;28;19935;-58
2023/10/02 16:37:59;;;;;;;;;;;;;;;;;;5087938;28;19924;-59
2023/10/02 16:40:25;;;;;;;;;;;;;;;;;;5095822;28;19924;-58
2023/10/02 16:42:50;;;;;;;;;;;;;;;;;;5097642;28;19980;-59
2023/10/02 16:45:16;;;;;;;;;;;;;;;;;;5105722;28;19919;-58
2023/10/02 16:47:42;;;;;;;;;;;;;;;;;;5076730;28;19939;-59
2023/10/02 16:50:08;;;;;;;;;;;;;;;;;;5093327;28;19962;-59
2023/10/02 16:52:34;;;;;;;;;;;;;;;;;;5101846;28;19931;-58
2023/10/02 16:54:59;;;;;;;;;;;;;;;;;;5102304;28;19920;-59
2023/10/02 16:57:30;;;;;;;;;;;;;;;;;;5088578;28;19913;-58
2023/10/02 16:59:55;;;;;;;;;;;;;;;;;;5103510;28;19983;-59
2023/10/02 17:02:21;;;;;;;;;;;;;;;;;;5104389;28;19931;-60
2023/10/02 17:04:46;;;;;;;;;;;;;;;;;;5102896;28;19912;-60
2023/10/02 17:07:12;;;;;;;;;;;;;;;;;;5103323;28;19943;-59